createdAt,value
2022-08-25T00:01:59.215Z,28.80
2022-08-25T00:04:26.933Z,28.40
2022-08-25T00:06:54.103Z,29.60
2022-08-25T00:09:24.365Z,30.70
2022-08-25T00:11:51.703Z,30.90
2022-08-25T00:14:23.149Z,29.80
2022-08-25T00:16:50.653Z,28.40
2022-08-25T00:19:24.162Z,31.10
2022-08-25T00:21:51.819Z,30.20
2022-08-25T00:24:21.042Z,29.50
2022-08-25T00:26:50.572Z,28.70
2022-08-25T00:29:17.892Z,28.30
2022-08-25T00:31:45.277Z,28.60
2022-08-25T00:34:19.956Z,29.10
2022-08-25T00:36:46.804Z,26.60
2022-08-25T00:39:14.354Z,25.70
2022-08-25T00:41:43.088Z,25.60
2022-08-25T00:44:13.487Z,25.30
2022-08-25T00:46:44.124Z,25.30
2022-08-25T00:49:27.562Z,24.60
2022-08-25T00:52:06.127Z,25.30
2022-08-25T00:54:37.896Z,25.20
2022-08-25T00:57:06.797Z,24.80
2022-08-25T00:59:34.610Z,24.40
2022-08-25T01:02:03.402Z,25.10
2022-08-25T01:04:30.176Z,25.50
2022-08-25T01:06:58.350Z,25.10
2022-08-25T01:09:25.276Z,24.20
2022-08-25T01:11:52.863Z,22.80
2022-08-25T01:14:21.771Z,23.90
2022-08-25T01:16:51.191Z,23.80
2022-08-25T01:19:21.247Z,24.90
2022-08-25T01:21:50.883Z,29.70
2022-08-25T01:24:41.079Z,26.20
2022-08-25T01:27:09.628Z,23.90
2022-08-25T01:29:37.259Z,23.50
2022-08-25T01:32:08.809Z,22.90
2022-08-25T01:34:38.112Z,22.50
2022-08-25T01:37:05.154Z,22.40
2022-08-25T01:39:33.076Z,22.20
2022-08-25T01:41:59.674Z,21.50
2022-08-25T01:44:26.593Z,20.90
2022-08-25T01:46:54.012Z,21.80
2022-08-25T01:49:21.776Z,21.50
2022-08-25T01:51:57.611Z,21.70
2022-08-25T01:54:24.189Z,21.50
2022-08-25T01:56:50.875Z,22.10
2022-08-25T01:59:23.902Z,21.80
2022-08-25T02:01:51.607Z,21.30
2022-08-25T02:04:28.028Z,21.30
2022-08-25T02:06:54.775Z,22.20
2022-08-25T02:09:21.282Z,20.60
2022-08-25T02:11:48.116Z,23.40
2022-08-25T02:14:15.930Z,25.90
2022-08-25T02:16:47.843Z,25.80
2022-08-25T02:19:15.201Z,25.20
2022-08-25T02:21:42.220Z,23.80
2022-08-25T02:24:09.592Z,26.90
2022-08-25T02:26:36.522Z,28.00
2022-08-25T02:29:04.665Z,27.90
2022-08-25T02:31:31.857Z,27.90
2022-08-25T02:33:58.602Z,30.00
2022-08-25T02:36:25.757Z,27.70
2022-08-25T02:38:52.536Z,35.60
2022-08-25T02:41:22.794Z,33.50
2022-08-25T02:43:57.667Z,32.50
2022-08-25T02:46:24.572Z,29.00
2022-08-25T02:48:51.982Z,27.50
2022-08-25T02:51:20.780Z,26.60
2022-08-25T02:53:47.595Z,27.10
2022-08-25T02:56:15.578Z,26.90
2022-08-25T02:58:42.454Z,28.90
2022-08-25T03:01:10.479Z,28.90
2022-08-25T03:03:39.536Z,28.10
2022-08-25T03:06:09.146Z,26.50
2022-08-25T03:08:37.619Z,26.50
2022-08-25T03:11:05.773Z,27.10
2022-08-25T03:13:32.969Z,25.70
2022-08-25T03:16:02.990Z,25.10
2022-08-25T03:18:30.372Z,26.20
2022-08-25T03:20:58.244Z,26.60
2022-08-25T03:23:25.124Z,28.50
2022-08-25T03:25:54.751Z,26.70
2022-08-25T03:28:25.033Z,26.10
2022-08-25T03:30:57.495Z,27.20
2022-08-25T03:33:24.026Z,25.90
2022-08-25T03:35:50.537Z,26.30
2022-08-25T03:38:17.408Z,24.70
2022-08-25T03:40:44.155Z,24.40
2022-08-25T03:43:10.849Z,25.90
2022-08-25T03:45:42.388Z,26.20
2022-08-25T03:48:09.205Z,25.90
2022-08-25T03:50:36.457Z,26.00
2022-08-25T03:53:03.818Z,27.00
2022-08-25T03:55:30.766Z,26.80
2022-08-25T03:57:59.315Z,27.80
2022-08-25T04:00:26.306Z,26.50
2022-08-25T04:02:53.051Z,26.50
2022-08-25T04:05:19.591Z,25.60
2022-08-25T04:07:46.862Z,26.90
2022-08-25T04:10:13.605Z,25.00
2022-08-25T04:12:43.857Z,26.00
2022-08-25T04:15:11.205Z,26.90
2022-08-25T04:17:39.836Z,24.80
2022-08-25T04:20:09.179Z,26.00
2022-08-25T04:22:37.071Z,24.90
2022-08-25T04:25:06.354Z,25.30
2022-08-25T04:27:32.998Z,24.60
2022-08-25T04:29:59.745Z,25.70
2022-08-25T04:32:26.484Z,25.60
2022-08-25T04:34:53.233Z,25.10
2022-08-25T04:37:19.901Z,25.10
2022-08-25T04:39:46.544Z,24.80
2022-08-25T04:42:13.679Z,26.40
2022-08-25T04:44:40.219Z,26.80
2022-08-25T04:47:06.907Z,29.90
2022-08-25T04:49:33.514Z,28.80
2022-08-25T04:52:00.345Z,27.70
2022-08-25T04:54:26.941Z,29.20
2022-08-25T04:56:58.090Z,25.70
2022-08-25T04:59:29.913Z,25.00
2022-08-25T05:01:58.093Z,24.50
2022-08-25T05:04:28.376Z,24.10
2022-08-25T05:06:56.372Z,23.90
2022-08-25T05:09:23.853Z,24.80
2022-08-25T05:11:53.459Z,26.40
2022-08-25T05:14:20.958Z,27.80
2022-08-25T05:16:48.017Z,26.00
2022-08-25T05:19:14.807Z,28.50
2022-08-25T05:21:41.389Z,28.90
2022-08-25T05:24:08.213Z,30.20
2022-08-25T05:26:35.450Z,28.90
2022-08-25T05:29:04.092Z,30.90
2022-08-25T05:31:32.906Z,29.50
2022-08-25T05:34:00.115Z,32.00
2022-08-25T05:36:28.166Z,30.40
2022-08-25T05:38:54.721Z,30.20
2022-08-25T05:41:26.862Z,28.90
2022-08-25T05:43:53.545Z,27.40
2022-08-25T05:46:21.352Z,28.20
2022-08-25T05:48:48.845Z,27.60
2022-08-25T05:51:16.014Z,28.50
2022-08-25T05:53:45.786Z,27.00
2022-08-25T05:56:12.896Z,26.70
2022-08-25T05:58:40.771Z,27.10
2022-08-25T06:01:08.027Z,27.50
2022-08-25T06:03:34.593Z,26.20
2022-08-25T06:06:10.387Z,24.90
2022-08-25T06:08:37.105Z,24.10
2022-08-25T06:11:06.726Z,23.40
2022-08-25T06:13:33.953Z,23.00
2022-08-25T06:16:01.194Z,21.70
2022-08-25T06:18:28.201Z,21.90
2022-08-25T06:20:54.751Z,20.80
2022-08-25T06:23:21.443Z,22.00
2022-08-25T06:25:53.583Z,20.70
2022-08-25T06:28:21.183Z,21.90
2022-08-25T06:30:48.239Z,20.60
2022-08-25T06:33:15.398Z,21.00
2022-08-25T06:35:44.043Z,20.40
2022-08-25T06:38:11.547Z,20.20
2022-08-25T06:40:38.602Z,21.30
2022-08-25T06:43:05.356Z,20.60
2022-08-25T06:45:32.147Z,20.80
2022-08-25T06:47:58.793Z,20.90
2022-08-25T06:50:25.991Z,23.40
2022-08-25T06:52:52.631Z,23.20
2022-08-25T06:55:19.379Z,21.80
2022-08-25T06:57:45.946Z,32.60
2022-08-25T07:00:12.860Z,33.40
2022-08-25T07:02:39.681Z,31.90
2022-08-25T07:05:08.249Z,31.00
2022-08-25T07:07:42.998Z,27.90
2022-08-25T07:10:11.546Z,28.40
2022-08-25T07:12:38.442Z,28.90
2022-08-25T07:15:21.211Z,33.60
2022-08-25T07:17:48.861Z,33.90
2022-08-25T07:20:19.248Z,27.70
2022-08-25T07:22:47.027Z,31.50
2022-08-25T07:25:13.733Z,33.70
2022-08-25T07:27:42.294Z,32.20
2022-08-25T07:30:11.205Z,32.40
2022-08-25T07:32:41.944Z,31.20
2022-08-25T07:35:10.509Z,27.80
2022-08-25T07:37:49.640Z,27.40
2022-08-25T07:40:21.485Z,23.70
2022-08-25T07:42:54.164Z,23.50
2022-08-25T07:45:22.747Z,20.00
2022-08-25T07:47:51.683Z,21.50
2022-08-25T07:50:19.561Z,19.40
2022-08-25T07:52:53.927Z,20.70
2022-08-25T07:55:27.052Z,19.30
2022-08-25T07:57:57.068Z,17.80
2022-08-25T08:00:25.165Z,19.30
2022-08-25T08:02:52.507Z,19.60
2022-08-25T08:05:20.287Z,21.90
2022-08-25T08:07:50.787Z,20.90
2022-08-25T08:13:06.521Z,20.40
2022-08-25T08:15:34.794Z,20.10
2022-08-25T08:18:01.385Z,20.90
2022-08-25T08:20:30.159Z,18.10
2022-08-25T08:23:07.874Z,18.40
2022-08-25T08:25:34.674Z,18.70
2022-08-25T08:28:01.178Z,18.00
2022-08-25T08:30:28.070Z,18.10
2022-08-25T08:33:11.672Z,17.80
2022-08-25T08:35:40.347Z,18.40
2022-08-25T08:38:14.712Z,18.70
2022-08-25T08:41:01.383Z,16.50
2022-08-25T08:43:33.214Z,19.20
2022-08-25T08:46:00.102Z,16.10
2022-08-25T08:49:02.033Z,15.60
2022-08-25T08:51:43.416Z,18.50
2022-08-25T08:54:23.146Z,18.90
2022-08-25T08:56:57.691Z,17.30
2022-08-25T08:59:30.835Z,18.30
2022-08-25T09:02:02.639Z,16.90
2022-08-25T09:04:44.103Z,15.90
2022-08-25T09:07:17.439Z,16.00
2022-08-25T09:09:48.486Z,19.10
2022-08-25T09:12:47.469Z,18.70
2022-08-25T09:16:01.430Z,15.70
2022-08-25T09:18:50.735Z,16.20
2022-08-25T09:21:27.392Z,14.30
2022-08-25T09:24:02.976Z,11.70
2022-08-25T09:26:39.928Z,11.20
2022-08-25T09:29:16.622Z,11.20
2022-08-25T09:31:44.864Z,10.90
2022-08-25T09:34:20.730Z,9.40
2022-08-25T09:36:47.856Z,9.80
2022-08-25T09:39:14.738Z,13.00
2022-08-25T09:41:45.339Z,12.70
2022-08-25T09:44:26.282Z,14.60
2022-08-25T09:46:55.874Z,11.40
2022-08-25T09:49:32.152Z,14.10
2022-08-25T09:52:25.244Z,13.20
2022-08-25T09:54:54.086Z,14.60
2022-08-25T09:57:42.817Z,13.00
2022-08-25T10:00:36.253Z,13.30
2022-08-25T10:03:24.881Z,12.60
2022-08-25T10:06:06.117Z,14.00
2022-08-25T10:08:39.561Z,12.60
2022-08-25T10:11:28.966Z,12.40
2022-08-25T10:14:16.178Z,12.30
2022-08-25T10:16:46.905Z,12.00
2022-08-25T10:19:24.331Z,11.90
2022-08-25T10:22:08.011Z,10.50
2022-08-25T10:24:40.995Z,12.00
2022-08-25T10:27:18.556Z,11.00
2022-08-25T10:30:10.271Z,11.60
2022-08-25T10:33:03.090Z,11.30
2022-08-25T10:35:56.804Z,8.90
2022-08-25T10:38:42.990Z,8.60
2022-08-25T10:41:21.999Z,9.60
2022-08-25T10:44:45.885Z,7.80
2022-08-25T10:47:17.998Z,6.60
2022-08-25T10:49:55.693Z,6.60
2022-08-25T10:52:36.912Z,7.20
2022-08-25T10:55:13.049Z,7.30
2022-08-25T10:58:18.400Z,6.40
2022-08-25T11:01:04.183Z,6.60
2022-08-25T11:03:53.156Z,6.20
2022-08-25T11:06:35.384Z,6.10
2022-08-25T11:09:08.186Z,5.40
2022-08-25T11:11:46.264Z,6.20
2022-08-25T11:14:31.395Z,6.50
2022-08-25T11:17:15.635Z,5.50
2022-08-25T11:19:51.458Z,6.20
2022-08-25T11:22:36.113Z,6.00
2022-08-25T11:25:14.561Z,6.00
2022-08-25T11:28:07.230Z,5.30
2022-08-25T11:30:34.594Z,6.10
2022-08-25T11:33:02.119Z,6.20
2022-08-25T11:35:43.744Z,5.90
2022-08-25T11:38:37.593Z,6.00
2022-08-25T11:41:27.661Z,6.90
2022-08-25T11:44:07.086Z,6.60
2022-08-25T11:46:51.596Z,5.70
2022-08-25T11:49:46.283Z,6.30
2022-08-25T11:52:32.902Z,6.70
2022-08-25T11:55:22.873Z,6.00
2022-08-25T11:57:53.630Z,7.20
2022-08-25T12:00:37.882Z,7.00
2022-08-25T12:03:32.625Z,6.30
2022-08-25T12:06:32.098Z,6.90
2022-08-25T12:09:01.568Z,6.80
2022-08-25T12:11:49.074Z,6.50
2022-08-25T12:14:21.815Z,6.90
2022-08-25T12:16:51.702Z,6.50
2022-08-25T12:22:01.053Z,7.40
2022-08-25T12:24:48.207Z,6.50
2022-08-25T12:27:41.709Z,6.80
2022-08-25T12:30:36.560Z,7.00
2022-08-25T12:33:17.796Z,6.60
2022-08-25T12:36:01.770Z,6.20
2022-08-25T12:38:43.281Z,6.10
2022-08-25T12:41:27.292Z,7.70
2022-08-25T12:44:31.993Z,6.80
2022-08-25T12:47:27.038Z,6.60
2022-08-25T12:50:14.157Z,6.40
2022-08-25T12:52:41.107Z,6.30
2022-08-25T12:55:13.304Z,5.80
2022-08-25T12:57:51.093Z,6.00
2022-08-25T13:00:22.038Z,6.40
2022-08-25T13:03:04.072Z,6.30
2022-08-25T13:05:58.279Z,7.00
2022-08-25T13:09:08.498Z,5.70
2022-08-25T13:11:54.860Z,5.80
2022-08-25T13:14:40.598Z,6.10
2022-08-25T13:17:09.720Z,6.80
2022-08-25T13:19:37.684Z,6.30
2022-08-25T13:22:16.322Z,7.20
2022-08-25T13:24:45.703Z,5.40
2022-08-25T13:27:25.027Z,5.90
2022-08-25T13:29:59.584Z,6.00
2022-08-25T13:32:36.030Z,5.90
2022-08-25T13:35:17.809Z,5.60
2022-08-25T13:37:46.984Z,5.80
2022-08-25T13:40:19.665Z,5.90
2022-08-25T13:42:55.565Z,7.10
2022-08-25T13:45:26.421Z,6.00
2022-08-25T13:48:07.562Z,6.00
2022-08-25T13:50:42.759Z,6.30
2022-08-25T13:53:24.638Z,6.60
2022-08-25T13:55:54.391Z,5.50
2022-08-25T13:58:39.471Z,5.70
2022-08-25T14:01:48.025Z,5.20
2022-08-25T14:04:27.182Z,5.50
2022-08-25T14:07:06.011Z,7.20
2022-08-25T14:09:51.012Z,5.40
2022-08-25T14:12:37.369Z,5.10
2022-08-25T14:15:28.708Z,4.80
2022-08-25T14:18:17.671Z,5.10
2022-08-25T14:20:50.250Z,5.50
2022-08-25T14:23:20.863Z,4.60
2022-08-25T14:25:52.643Z,5.10
2022-08-25T14:28:25.727Z,4.30
2022-08-25T14:30:59.882Z,4.20
2022-08-25T14:33:33.228Z,4.60
2022-08-25T14:36:01.441Z,4.60
2022-08-25T14:38:28.272Z,4.20
2022-08-25T14:40:54.990Z,4.00
2022-08-25T14:43:31.923Z,4.40
2022-08-25T14:46:02.591Z,4.40
2022-08-25T14:48:45.493Z,4.90
2022-08-25T14:51:14.553Z,5.00
2022-08-25T14:53:45.620Z,4.60
2022-08-25T14:56:12.210Z,4.20
2022-08-25T14:58:50.889Z,4.10
2022-08-25T15:01:28.831Z,4.20
2022-08-25T15:04:21.757Z,4.60
2022-08-25T15:06:54.960Z,4.10
2022-08-25T15:09:21.621Z,3.90
2022-08-25T15:11:54.646Z,3.90
2022-08-25T15:14:29.176Z,4.70
2022-08-25T15:17:02.027Z,4.30
2022-08-25T15:19:29.477Z,3.90
2022-08-25T15:21:58.161Z,4.30
2022-08-25T15:24:27.710Z,5.00
2022-08-25T15:26:59.086Z,5.50
2022-08-25T15:29:27.823Z,5.20
2022-08-25T15:31:54.826Z,5.00
2022-08-25T15:34:22.129Z,5.10
2022-08-25T15:36:48.874Z,4.90
2022-08-25T15:39:15.826Z,5.10
2022-08-25T15:41:46.568Z,4.90
2022-08-25T15:44:16.087Z,4.90
2022-08-25T15:46:49.681Z,4.90
2022-08-25T15:49:20.667Z,4.80
2022-08-25T15:51:54.253Z,4.40
2022-08-25T15:54:23.023Z,4.90
2022-08-25T15:56:50.710Z,4.90
2022-08-25T15:59:19.379Z,5.00
2022-08-25T16:01:49.777Z,5.10
2022-08-25T16:04:16.367Z,4.70
2022-08-25T16:06:44.535Z,4.50
2022-08-25T16:09:12.083Z,5.60
2022-08-25T16:11:38.818Z,5.30
2022-08-25T16:14:06.510Z,5.40
2022-08-25T16:16:33.954Z,5.10
2022-08-25T16:19:01.743Z,4.70
2022-08-25T16:21:32.677Z,4.40
2022-08-25T16:24:05.497Z,4.80
2022-08-25T16:26:36.590Z,4.90
2022-08-25T16:29:06.579Z,5.30
2022-08-25T16:34:00.230Z,5.00
2022-08-25T16:36:27.964Z,6.00
2022-08-25T16:38:56.281Z,5.70
2022-08-25T16:41:25.971Z,4.80
2022-08-25T16:43:53.360Z,5.60
2022-08-25T16:46:21.772Z,5.30
2022-08-25T16:48:50.942Z,5.50
2022-08-25T16:51:22.778Z,5.50
2022-08-25T16:53:52.317Z,5.10
2022-08-25T16:56:18.999Z,5.10
2022-08-25T16:58:45.918Z,5.50
2022-08-25T17:01:12.945Z,5.80
2022-08-25T17:03:44.096Z,5.70
2022-08-25T17:06:11.788Z,5.70
2022-08-25T17:08:38.431Z,5.90
2022-08-25T17:11:12.454Z,6.90
2022-08-25T17:13:44.694Z,8.70
2022-08-25T17:16:14.723Z,11.10
2022-08-25T17:18:42.680Z,10.10
2022-08-25T17:21:16.107Z,9.60
2022-08-25T17:23:51.343Z,10.00
2022-08-25T17:26:18.080Z,9.70
2022-08-25T17:28:45.082Z,10.00
2022-08-25T17:31:13.877Z,9.90
2022-08-25T17:33:41.700Z,11.50
2022-08-25T17:36:09.080Z,12.80
2022-08-25T17:38:36.033Z,14.10
2022-08-25T17:41:06.227Z,11.80
2022-08-25T17:43:35.135Z,11.40
2022-08-25T17:46:05.964Z,11.20
2022-08-25T17:48:33.468Z,11.90
2022-08-25T17:51:01.732Z,11.10
2022-08-25T17:53:29.296Z,11.10
2022-08-25T17:56:05.335Z,11.40
2022-08-25T17:58:32.616Z,11.50
2022-08-25T18:00:59.978Z,11.10
2022-08-25T18:03:27.948Z,11.30
2022-08-25T18:05:55.204Z,12.10
2022-08-25T18:08:21.955Z,11.30
2022-08-25T18:10:59.255Z,11.90
2022-08-25T18:13:26.200Z,11.00
2022-08-25T18:15:55.309Z,11.10
2022-08-25T18:18:24.105Z,12.20
2022-08-25T18:20:51.252Z,11.70
2022-08-25T18:23:19.631Z,11.50
2022-08-25T18:25:48.906Z,10.90
2022-08-25T18:28:16.096Z,10.40
2022-08-25T18:30:43.248Z,11.50
2022-08-25T18:33:11.015Z,11.40
2022-08-25T18:35:38.110Z,12.00
2022-08-25T18:38:06.041Z,12.30
2022-08-25T18:40:35.246Z,12.20
2022-08-25T18:43:05.572Z,12.90
2022-08-25T18:45:41.528Z,12.70
2022-08-25T18:48:08.892Z,11.70
2022-08-25T18:50:39.221Z,12.80
2022-08-25T18:53:06.788Z,12.00
2022-08-25T18:55:35.167Z,12.30
2022-08-25T18:58:02.191Z,11.80
2022-08-25T19:00:31.010Z,12.60
2022-08-25T19:03:00.636Z,12.10
2022-08-25T19:05:33.987Z,12.60
2022-08-25T19:08:03.329Z,12.30
2022-08-25T19:10:30.824Z,12.50
2022-08-25T19:12:57.755Z,12.80
2022-08-25T19:15:26.446Z,12.20
2022-08-25T19:17:55.146Z,12.20
2022-08-25T19:20:23.199Z,11.90
2022-08-25T19:22:50.364Z,12.10
2022-08-25T19:25:21.920Z,11.30
2022-08-25T19:27:50.123Z,12.70
2022-08-25T19:30:20.836Z,12.10
2022-08-25T19:35:21.721Z,11.50
2022-08-25T19:37:49.745Z,13.20
2022-08-25T19:40:18.244Z,12.20
2022-08-25T19:42:45.206Z,12.30
2022-08-25T19:45:13.406Z,12.50
2022-08-25T19:47:40.109Z,12.70
2022-08-25T19:50:08.752Z,11.70
2022-08-25T19:52:36.285Z,11.70
2022-08-25T19:55:03.338Z,11.90
2022-08-25T19:57:42.744Z,11.40
2022-08-25T20:00:21.140Z,12.00
2022-08-25T20:02:48.069Z,12.00
2022-08-25T20:05:15.822Z,12.40
2022-08-25T20:07:52.231Z,12.40
2022-08-25T20:10:21.172Z,13.50
2022-08-25T20:12:48.349Z,13.40
2022-08-25T20:15:16.831Z,12.40
2022-08-25T20:17:44.294Z,12.00
2022-08-25T20:20:15.142Z,12.20
2022-08-25T20:22:42.292Z,12.70
2022-08-25T20:25:14.157Z,11.80
2022-08-25T20:27:56.088Z,12.90
2022-08-25T20:30:25.441Z,11.90
2022-08-25T20:32:53.643Z,11.30
2022-08-25T20:35:21.716Z,12.20
2022-08-25T20:37:55.289Z,11.10
2022-08-25T20:40:25.465Z,11.30
2022-08-25T20:42:53.124Z,13.10
2022-08-25T20:45:21.090Z,13.60
2022-08-25T20:47:48.169Z,13.20
2022-08-25T20:50:15.870Z,13.60
2022-08-25T20:52:43.913Z,14.30
2022-08-25T20:55:11.353Z,13.30
2022-08-25T20:57:38.287Z,13.10
2022-08-25T21:00:08.326Z,12.20
2022-08-25T21:02:36.327Z,12.00
2022-08-25T21:05:05.715Z,13.20
2022-08-25T21:07:35.673Z,13.50
2022-08-25T21:10:06.678Z,14.00
2022-08-25T21:12:37.750Z,12.90
2022-08-25T21:15:05.079Z,13.30
2022-08-25T21:17:33.871Z,13.10
2022-08-25T21:20:00.519Z,13.00
2022-08-25T21:22:36.568Z,14.60
2022-08-25T21:25:05.476Z,14.00
2022-08-25T21:27:33.294Z,14.20
2022-08-25T21:29:59.907Z,14.30
2022-08-25T21:32:26.481Z,14.00
2022-08-25T21:34:54.497Z,13.30
2022-08-25T21:37:22.192Z,13.60
2022-08-25T21:39:49.087Z,13.20
2022-08-25T21:42:16.062Z,12.80
2022-08-25T21:44:43.222Z,13.30
2022-08-25T21:47:09.787Z,12.50
2022-08-25T21:49:37.607Z,12.20
2022-08-25T21:52:04.717Z,12.50
2022-08-25T21:54:31.940Z,13.00
2022-08-25T21:57:02.256Z,12.60
2022-08-25T21:59:33.632Z,13.40
2022-08-25T22:02:03.399Z,13.10
2022-08-25T22:04:31.490Z,13.40
2022-08-25T22:06:59.050Z,13.80
2022-08-25T22:09:28.356Z,13.40
2022-08-25T22:11:55.784Z,13.30
2022-08-25T22:14:24.191Z,14.10
2022-08-25T22:16:54.086Z,12.80
2022-08-25T22:19:20.994Z,12.10
2022-08-25T22:21:47.641Z,11.40
2022-08-25T22:24:15.084Z,11.20
2022-08-25T22:26:41.885Z,12.40
2022-08-25T22:29:14.019Z,11.50
2022-08-25T22:31:51.106Z,11.50
2022-08-25T22:34:20.105Z,11.40
2022-08-25T22:36:59.565Z,11.10
2022-08-25T22:39:28.248Z,10.60
2022-08-25T22:41:55.485Z,11.50
2022-08-25T22:44:23.219Z,11.10
2022-08-25T22:46:50.344Z,10.90
2022-08-25T22:49:17.276Z,10.70
2022-08-25T22:51:44.213Z,12.20
2022-08-25T22:54:14.132Z,10.50
2022-08-25T22:56:41.323Z,11.50
2022-08-25T22:59:11.295Z,12.40
2022-08-25T23:01:38.698Z,10.70
2022-08-25T23:04:07.578Z,10.80
2022-08-25T23:06:45.434Z,11.00
2022-08-25T23:09:14.127Z,10.90
2022-08-25T23:11:40.964Z,10.60
2022-08-25T23:14:09.273Z,10.70
2022-08-25T23:16:36.313Z,11.10
2022-08-25T23:19:02.969Z,11.10
2022-08-25T23:21:29.729Z,10.30
2022-08-25T23:24:02.243Z,10.80
2022-08-25T23:26:28.800Z,11.20
2022-08-25T23:28:55.491Z,11.60
2022-08-25T23:31:22.168Z,10.50
2022-08-25T23:33:51.036Z,10.20
2022-08-25T23:36:19.485Z,10.20
2022-08-25T23:38:51.562Z,10.50
2022-08-25T23:41:21.374Z,10.30
2022-08-25T23:43:49.792Z,10.10
2022-08-25T23:46:19.203Z,10.80
2022-08-25T23:48:48.010Z,10.50
2022-08-25T23:51:30.339Z,10.10
2022-08-25T23:53:57.734Z,10.40
2022-08-25T23:56:26.244Z,10.10
2022-08-25T23:58:55.469Z,10.20
